createdAt,value
2018-09-17T00:00:12.732Z,4.20
2018-09-17T00:03:18.111Z,4.27
2018-09-17T00:06:23.485Z,4.10
2018-09-17T00:09:28.902Z,3.80
2018-09-17T00:12:34.250Z,3.80
2018-09-17T00:15:39.630Z,3.97
2018-09-17T00:18:45.070Z,4.07
2018-09-17T00:21:50.425Z,3.97
2018-09-17T00:24:56.175Z,3.60
2018-09-17T00:28:01.565Z,3.73
2018-09-17T00:31:07.317Z,4.27
2018-09-17T00:34:12.720Z,3.97
2018-09-17T00:37:18.075Z,3.67
2018-09-17T00:40:23.441Z,4.33
2018-09-17T00:43:28.801Z,3.73
2018-09-17T00:46:34.174Z,3.63
2018-09-17T00:49:39.946Z,3.83
2018-09-17T00:52:45.478Z,4.07
2018-09-17T00:55:50.845Z,3.97
2018-09-17T00:58:56.278Z,4.70
2018-09-17T01:02:01.647Z,4.00
2018-09-17T01:05:07.928Z,4.23
2018-09-17T01:08:13.289Z,3.60
2018-09-17T01:11:19.037Z,4.20
2018-09-17T01:14:24.431Z,3.83
2018-09-17T01:17:29.773Z,4.10
2018-09-17T01:20:35.149Z,3.77
2018-09-17T01:23:40.504Z,3.90
2018-09-17T01:26:46.449Z,3.77
2018-09-17T01:29:51.905Z,3.87
2018-09-17T01:32:57.252Z,3.83
2018-09-17T01:36:02.632Z,3.80
2018-09-17T01:39:10.577Z,3.90
2018-09-17T01:42:15.972Z,3.93
2018-09-17T01:45:21.461Z,3.90
2018-09-17T01:48:26.918Z,3.77
2018-09-17T01:51:32.290Z,3.80
2018-09-17T01:54:37.686Z,3.90
2018-09-17T01:57:43.078Z,4.00
2018-09-17T02:00:48.832Z,3.90
2018-09-17T02:03:54.185Z,3.80
2018-09-17T02:06:59.566Z,3.73
2018-09-17T02:10:05.305Z,3.83
2018-09-17T02:13:11.145Z,3.70
2018-09-17T02:16:16.704Z,3.63
2018-09-17T02:19:22.146Z,3.93
2018-09-17T02:22:27.521Z,3.50
2018-09-17T02:25:32.906Z,3.43
2018-09-17T02:28:38.354Z,3.70
2018-09-17T02:31:43.757Z,3.83
2018-09-17T02:34:49.613Z,3.37
2018-09-17T02:37:55.047Z,3.50
2018-09-17T02:41:00.425Z,3.63
2018-09-17T02:44:05.801Z,4.03
2018-09-17T02:47:11.163Z,3.70
2018-09-17T02:50:16.638Z,3.77
2018-09-17T02:53:22.042Z,3.43
2018-09-17T02:56:27.597Z,3.50
2018-09-17T02:59:33.087Z,3.70
2018-09-17T03:02:38.743Z,3.70
2018-09-17T03:05:44.134Z,3.80
2018-09-17T03:08:49.612Z,3.90
2018-09-17T03:11:55.052Z,3.53
2018-09-17T03:15:11.201Z,3.83
2018-09-17T03:18:17.865Z,4.27
2018-09-17T03:21:23.418Z,4.43
2018-09-17T03:24:28.783Z,4.20
2018-09-17T03:27:34.439Z,3.60
2018-09-17T03:30:40.035Z,3.83
2018-09-17T03:33:45.454Z,3.73
2018-09-17T03:36:51.059Z,4.20
2018-09-17T03:39:58.228Z,3.67
2018-09-17T03:43:03.833Z,3.70
2018-09-17T03:46:09.224Z,4.00
2018-09-17T03:49:14.869Z,4.30
2018-09-17T03:52:20.250Z,3.83
2018-09-17T03:55:25.606Z,4.13
2018-09-17T03:58:31.069Z,4.20
2018-09-17T04:01:36.450Z,3.70
2018-09-17T04:04:41.797Z,3.80
2018-09-17T04:07:47.182Z,4.07
2018-09-17T04:10:52.558Z,4.30
2018-09-17T04:13:58.419Z,4.50
2018-09-17T04:17:03.794Z,4.90
2018-09-17T04:20:09.186Z,4.63
2018-09-17T04:23:14.562Z,3.73
2018-09-17T04:26:19.930Z,3.67
2018-09-17T04:29:25.347Z,4.47
2018-09-17T04:32:30.753Z,3.90
2018-09-17T04:35:36.111Z,4.70
2018-09-17T04:38:41.579Z,4.43
2018-09-17T04:41:46.954Z,4.40
2018-09-17T04:44:52.315Z,4.10
2018-09-17T04:47:57.731Z,4.13
2018-09-17T04:51:03.120Z,4.67
2018-09-17T04:54:08.853Z,4.47
2018-09-17T04:57:14.391Z,4.17
2018-09-17T05:00:19.898Z,4.50
2018-09-17T05:03:25.266Z,3.77
2018-09-17T05:06:30.613Z,4.33
2018-09-17T05:09:36.470Z,4.20
2018-09-17T05:12:41.860Z,4.73
2018-09-17T05:15:47.216Z,4.50
2018-09-17T05:18:52.618Z,4.37
2018-09-17T05:21:58.138Z,3.77
2018-09-17T05:25:03.573Z,4.13
2018-09-17T05:28:09.152Z,4.30
2018-09-17T05:31:14.558Z,4.63
2018-09-17T05:34:19.957Z,4.70
2018-09-17T05:37:25.339Z,4.87
2018-09-17T05:40:30.929Z,4.83
2018-09-17T05:43:36.293Z,4.63
2018-09-17T05:46:41.642Z,5.47
2018-09-17T05:49:47.706Z,5.50
2018-09-17T05:52:53.079Z,4.60
2018-09-17T05:55:58.466Z,5.20
2018-09-17T05:59:03.977Z,10.13
2018-09-17T06:02:09.661Z,6.67
2018-09-17T06:05:15.965Z,5.60
2018-09-17T06:08:21.438Z,16.10
2018-09-17T06:11:26.801Z,12.63
2018-09-17T06:14:32.292Z,7.43
2018-09-17T06:17:38.295Z,6.60
2018-09-17T06:20:43.823Z,6.37
2018-09-17T06:23:49.185Z,6.13
2018-09-17T06:26:54.559Z,5.67
2018-09-17T06:30:00.315Z,5.90
2018-09-17T06:33:06.154Z,5.63
2018-09-17T06:36:11.808Z,5.77
2018-09-17T06:39:17.846Z,6.37
2018-09-17T06:42:23.332Z,6.13
2018-09-17T06:45:28.802Z,5.53
2018-09-17T06:48:34.205Z,5.90
2018-09-17T06:51:39.565Z,5.87
2018-09-17T06:54:44.938Z,6.20
2018-09-17T06:57:50.354Z,6.33
2018-09-17T07:00:55.730Z,6.33
2018-09-17T07:04:01.133Z,6.23
2018-09-17T07:07:06.886Z,6.03
2018-09-17T07:10:12.345Z,6.27
2018-09-17T07:13:17.706Z,5.33
2018-09-17T07:16:23.112Z,6.37
2018-09-17T07:19:28.890Z,6.20
2018-09-17T07:22:34.253Z,6.67
2018-09-17T07:25:39.634Z,5.83
2018-09-17T07:28:45.643Z,5.27
2018-09-17T07:31:51.025Z,4.80
2018-09-17T07:34:56.401Z,5.50
2018-09-17T07:38:01.787Z,6.17
2018-09-17T07:41:07.266Z,5.80
2018-09-17T07:44:12.646Z,6.00
2018-09-17T07:47:18.030Z,5.70
2018-09-17T07:50:23.396Z,5.70
2018-09-17T07:53:28.746Z,5.70
2018-09-17T07:56:34.127Z,5.13
2018-09-17T07:59:39.494Z,5.70
2018-09-17T08:02:44.850Z,5.87
2018-09-17T08:05:50.418Z,6.23
2018-09-17T08:08:55.818Z,5.40
2018-09-17T08:12:01.530Z,5.90
2018-09-17T08:15:07.900Z,5.83
2018-09-17T08:18:13.339Z,5.53
2018-09-17T08:21:18.809Z,5.60
2018-09-17T08:24:24.217Z,5.70
2018-09-17T08:27:29.974Z,5.57
2018-09-17T08:30:35.408Z,5.40
2018-09-17T08:33:40.884Z,4.97
2018-09-17T08:36:47.031Z,5.40
2018-09-17T08:39:52.406Z,5.93
2018-09-17T08:42:57.798Z,5.30
2018-09-17T08:46:03.326Z,5.40
2018-09-17T08:49:08.935Z,4.80
2018-09-17T08:52:14.451Z,3.90
2018-09-17T08:55:25.156Z,3.33
2018-09-17T08:58:39.581Z,3.13
2018-09-17T09:01:50.087Z,2.90
2018-09-17T09:04:56.245Z,3.00
2018-09-17T09:08:01.773Z,2.27
2018-09-17T09:11:12.366Z,2.50
2018-09-17T09:14:33.057Z,2.60
2018-09-17T09:17:38.442Z,2.50
2018-09-17T09:20:43.820Z,2.90
2018-09-17T09:23:49.182Z,2.63
2018-09-17T09:26:54.545Z,3.23
2018-09-17T09:29:59.931Z,3.00
2018-09-17T09:33:05.370Z,2.90
2018-09-17T09:36:10.743Z,3.00
2018-09-17T09:39:16.193Z,2.67
2018-09-17T09:42:21.769Z,2.80
2018-09-17T09:45:27.298Z,2.63
2018-09-17T09:48:32.669Z,2.10
2018-09-17T09:51:38.041Z,2.60
2018-09-17T09:54:43.399Z,2.47
2018-09-17T09:57:48.802Z,2.10
2018-09-17T10:00:59.401Z,2.23
2018-09-17T10:04:10.277Z,2.13
2018-09-17T10:07:15.674Z,2.03
2018-09-17T10:10:26.415Z,2.47
2018-09-17T10:13:36.973Z,2.57
2018-09-17T10:16:46.472Z,2.73
2018-09-17T10:19:52.854Z,2.97
2018-09-17T10:22:58.857Z,2.50
2018-09-17T10:26:04.199Z,2.23
2018-09-17T10:29:09.608Z,2.10
2018-09-17T10:32:15.658Z,2.50
2018-09-17T10:35:21.041Z,2.77
2018-09-17T10:38:26.417Z,2.43
2018-09-17T10:41:31.761Z,2.30
2018-09-17T10:44:37.146Z,2.50
2018-09-17T10:47:42.535Z,2.33
2018-09-17T10:50:48.000Z,2.20
2018-09-17T10:53:53.393Z,1.93
2018-09-17T10:56:58.747Z,1.87
2018-09-17T11:00:04.354Z,2.20
2018-09-17T11:03:09.725Z,1.73
2018-09-17T11:06:15.081Z,1.97
2018-09-17T11:09:20.527Z,1.73
2018-09-17T11:12:26.273Z,2.20
2018-09-17T11:15:36.758Z,2.03
2018-09-17T11:18:42.179Z,1.70
2018-09-17T11:21:47.538Z,1.60
2018-09-17T11:24:53.067Z,1.70
2018-09-17T11:27:58.430Z,1.80
2018-09-17T11:31:03.896Z,1.80
2018-09-17T11:34:09.288Z,1.67
2018-09-17T11:37:14.650Z,1.50
2018-09-17T11:40:20.085Z,1.50
2018-09-17T11:43:25.612Z,1.80
2018-09-17T11:46:31.653Z,1.60
2018-09-17T11:49:37.155Z,1.83
2018-09-17T11:52:42.511Z,1.60
2018-09-17T11:55:47.893Z,1.40
2018-09-17T11:58:53.382Z,1.67
2018-09-17T12:02:05.449Z,1.60
2018-09-17T12:05:11.070Z,1.60
2018-09-17T12:08:18.321Z,1.70
2018-09-17T12:11:23.669Z,1.63
2018-09-17T12:14:29.277Z,1.70
2018-09-17T12:17:35.100Z,1.50
2018-09-17T12:20:40.573Z,1.70
2018-09-17T12:23:45.942Z,1.80
2018-09-17T12:26:52.106Z,1.27
2018-09-17T12:29:57.522Z,1.40
2018-09-17T12:33:03.106Z,1.30
2018-09-17T12:36:08.484Z,1.50
2018-09-17T12:39:13.937Z,1.63
2018-09-17T12:42:19.286Z,1.60
2018-09-17T12:45:25.692Z,1.80
2018-09-17T12:48:31.057Z,1.23
2018-09-17T12:51:36.438Z,1.50
2018-09-17T12:54:41.841Z,1.30
2018-09-17T12:57:47.264Z,1.27
2018-09-17T13:00:53.433Z,1.40
2018-09-17T13:03:58.834Z,1.67
2018-09-17T13:07:04.278Z,1.97
2018-09-17T13:10:10.450Z,1.83
2018-09-17T13:13:15.862Z,1.80
2018-09-17T13:16:21.262Z,1.67
2018-09-17T13:19:26.640Z,1.60
2018-09-17T13:22:32.009Z,1.90
2018-09-17T13:25:37.382Z,1.80
2018-09-17T13:28:42.763Z,1.73
2018-09-17T13:31:48.847Z,1.90
2018-09-17T13:34:54.445Z,1.80
2018-09-17T13:38:00.045Z,2.10
2018-09-17T13:41:05.440Z,1.40
2018-09-17T13:44:10.893Z,1.50
2018-09-17T13:47:16.430Z,1.40
2018-09-17T13:50:21.822Z,1.70
2018-09-17T13:53:27.267Z,1.30
2018-09-17T13:56:32.825Z,1.40
2018-09-17T13:59:38.285Z,1.53
2018-09-17T14:02:43.672Z,1.43
2018-09-17T14:05:49.049Z,1.53
2018-09-17T14:08:54.476Z,1.53
2018-09-17T14:11:59.871Z,1.20
2018-09-17T14:15:05.723Z,1.50
2018-09-17T14:18:12.858Z,1.20
2018-09-17T14:21:18.315Z,1.20
2018-09-17T14:24:23.865Z,1.43
2018-09-17T14:27:29.367Z,1.33
2018-09-17T14:30:34.961Z,1.33
2018-09-17T14:33:41.606Z,1.73
2018-09-17T14:36:46.994Z,1.40
2018-09-17T14:39:52.413Z,1.50
2018-09-17T14:42:58.006Z,1.60
2018-09-17T14:46:03.730Z,1.53
2018-09-17T14:49:09.367Z,1.63
2018-09-17T14:52:15.222Z,1.53
2018-09-17T14:55:20.838Z,1.33
2018-09-17T14:58:26.347Z,1.30
2018-09-17T15:01:31.934Z,1.20
2018-09-17T15:04:37.459Z,1.70
2018-09-17T15:07:43.074Z,1.70
2018-09-17T15:10:48.738Z,1.40
2018-09-17T15:13:54.487Z,1.90
2018-09-17T15:16:59.896Z,1.53
2018-09-17T15:20:05.313Z,1.60
2018-09-17T15:23:10.706Z,1.40
2018-09-17T15:26:16.248Z,1.53
2018-09-17T15:29:21.789Z,1.40
2018-09-17T15:32:27.278Z,1.33
2018-09-17T15:35:32.820Z,1.57
2018-09-17T15:38:38.218Z,1.50
2018-09-17T15:41:43.607Z,1.70
2018-09-17T15:44:48.970Z,2.03
2018-09-17T15:47:54.389Z,1.40
2018-09-17T15:50:59.857Z,1.47
2018-09-17T15:54:05.238Z,1.67
2018-09-17T15:57:10.628Z,1.50
2018-09-17T16:00:16.019Z,1.50
2018-09-17T16:03:22.386Z,1.33
2018-09-17T16:06:27.758Z,1.27
2018-09-17T16:09:33.201Z,1.53
2018-09-17T16:12:38.577Z,1.60
2018-09-17T16:15:44.050Z,2.17
2018-09-17T16:18:49.900Z,1.63
2018-09-17T16:21:55.274Z,1.40
2018-09-17T16:25:00.682Z,1.70
2018-09-17T16:28:06.218Z,1.63
2018-09-17T16:31:11.609Z,1.90
2018-09-17T16:34:17.062Z,1.67
2018-09-17T16:37:22.433Z,1.70
2018-09-17T16:40:27.829Z,2.00
2018-09-17T16:43:33.195Z,1.97
2018-09-17T16:46:38.594Z,1.80
2018-09-17T16:49:43.986Z,2.20
2018-09-17T16:52:49.381Z,1.77
2018-09-17T16:55:54.936Z,1.77
2018-09-17T16:59:00.425Z,1.77
2018-09-17T17:02:05.951Z,1.80
2018-09-17T17:05:11.664Z,2.80
2018-09-17T17:08:17.254Z,2.23
2018-09-17T17:11:22.791Z,2.10
2018-09-17T17:14:28.290Z,2.07
2018-09-17T17:17:33.682Z,2.10
2018-09-17T17:20:39.786Z,2.07
2018-09-17T17:23:45.373Z,2.90
2018-09-17T17:26:50.729Z,2.70
2018-09-17T17:29:56.789Z,2.47
2018-09-17T17:33:02.233Z,2.43
2018-09-17T17:36:08.038Z,1.80
2018-09-17T17:39:13.530Z,2.43
2018-09-17T17:42:19.998Z,2.60
2018-09-17T17:45:25.390Z,2.50
2018-09-17T17:48:30.911Z,2.80
2018-09-17T17:51:36.269Z,2.80
2018-09-17T17:54:41.707Z,2.80
2018-09-17T17:57:47.927Z,2.60
2018-09-17T18:00:53.536Z,2.60
2018-09-17T18:03:59.286Z,2.50
2018-09-17T18:07:05.046Z,2.60
2018-09-17T18:10:10.416Z,2.73
2018-09-17T18:13:16.431Z,2.60
2018-09-17T18:16:25.854Z,2.93
2018-09-17T18:19:31.333Z,2.97
2018-09-17T18:22:36.898Z,2.87
2018-09-17T18:25:42.294Z,2.90
2018-09-17T18:28:47.817Z,2.90
2018-09-17T18:31:53.386Z,2.93
2018-09-17T18:34:58.762Z,3.50
2018-09-17T18:38:04.149Z,3.57
2018-09-17T18:41:09.609Z,4.03
2018-09-17T18:44:15.214Z,3.67
2018-09-17T18:47:20.578Z,3.73
2018-09-17T18:50:26.127Z,4.20
2018-09-17T18:53:31.498Z,3.40
2018-09-17T18:56:36.901Z,3.70
2018-09-17T18:59:42.360Z,3.80
2018-09-17T19:02:47.772Z,3.67
2018-09-17T19:05:53.494Z,3.73
2018-09-17T19:08:59.040Z,3.60
2018-09-17T19:12:04.762Z,3.83
2018-09-17T19:15:16.364Z,3.97
2018-09-17T19:18:22.020Z,3.77
2018-09-17T19:21:32.851Z,3.80
2018-09-17T19:24:38.410Z,3.87
2018-09-17T19:27:49.151Z,3.93
2018-09-17T19:30:54.710Z,4.03
2018-09-17T19:34:00.092Z,4.40
2018-09-17T19:37:10.853Z,4.00
2018-09-17T19:40:17.775Z,4.20
2018-09-17T19:43:23.411Z,4.10
2018-09-17T19:46:28.847Z,4.37
2018-09-17T19:49:34.328Z,4.23
2018-09-17T19:52:39.890Z,4.47
2018-09-17T19:55:46.297Z,4.63
2018-09-17T19:58:57.177Z,4.43
2018-09-17T20:02:02.570Z,4.60
2018-09-17T20:05:13.606Z,4.20
2018-09-17T20:08:19.125Z,4.07
2018-09-17T20:11:24.745Z,4.50
2018-09-17T20:14:30.117Z,4.70
2018-09-17T20:17:35.830Z,4.40
2018-09-17T20:20:41.221Z,4.90
2018-09-17T20:23:46.606Z,4.60
2018-09-17T20:26:52.490Z,4.17
2018-09-17T20:29:58.048Z,4.30
2018-09-17T20:33:05.252Z,4.30
2018-09-17T20:36:15.657Z,4.67
2018-09-17T20:39:23.201Z,4.70
2018-09-17T20:42:28.574Z,4.77
2018-09-17T20:45:35.266Z,4.63
2018-09-17T20:48:52.260Z,5.10
2018-09-17T20:51:58.541Z,4.93
2018-09-17T20:55:03.925Z,5.17
2018-09-17T20:58:09.861Z,5.50
2018-09-17T21:01:15.417Z,5.57
2018-09-17T21:04:20.934Z,5.10
2018-09-17T21:07:26.653Z,5.67
2018-09-17T21:10:32.134Z,5.40
2018-09-17T21:13:37.518Z,5.40
2018-09-17T21:16:42.935Z,5.47
2018-09-17T21:19:48.386Z,5.87
2018-09-17T21:22:53.766Z,5.50
2018-09-17T21:25:59.133Z,5.40
2018-09-17T21:29:04.645Z,5.90
2018-09-17T21:32:10.033Z,6.07
2018-09-17T21:35:15.462Z,5.10
2018-09-17T21:38:21.108Z,5.53
2018-09-17T21:41:26.577Z,6.07
2018-09-17T21:44:31.959Z,5.80
2018-09-17T21:47:37.545Z,5.70
2018-09-17T21:50:42.998Z,5.53
2018-09-17T21:53:48.402Z,5.67
2018-09-17T21:56:53.761Z,5.27
2018-09-17T21:59:59.720Z,5.53
2018-09-17T22:03:05.647Z,5.10
2018-09-17T22:06:10.997Z,5.67
2018-09-17T22:09:16.834Z,5.30
2018-09-17T22:12:22.653Z,5.40
2018-09-17T22:15:28.353Z,5.57
2018-09-17T22:18:33.757Z,6.00
2018-09-17T22:21:39.113Z,5.53
2018-09-17T22:24:44.504Z,4.87
2018-09-17T22:27:49.905Z,5.17
2018-09-17T22:30:55.290Z,4.57
2018-09-17T22:34:00.695Z,4.90
2018-09-17T22:37:06.623Z,4.57
2018-09-17T22:40:12.150Z,4.40
2018-09-17T22:43:17.509Z,4.83
2018-09-17T22:46:22.969Z,4.70
2018-09-17T22:49:28.438Z,4.73
2018-09-17T22:52:33.834Z,4.70
2018-09-17T22:55:39.186Z,4.57
2018-09-17T22:58:45.305Z,4.80
2018-09-17T23:01:50.663Z,4.37
2018-09-17T23:04:56.034Z,4.77
2018-09-17T23:08:01.486Z,5.30
2018-09-17T23:11:07.385Z,4.60
2018-09-17T23:14:12.741Z,4.43
2018-09-17T23:17:18.199Z,4.40
2018-09-17T23:20:23.564Z,4.13
2018-09-17T23:23:29.351Z,4.47
2018-09-17T23:26:34.713Z,4.20
2018-09-17T23:29:40.194Z,4.83
2018-09-17T23:32:45.676Z,4.70
2018-09-17T23:35:51.149Z,4.40
2018-09-17T23:38:56.702Z,4.57
2018-09-17T23:42:02.062Z,4.83
2018-09-17T23:45:07.590Z,4.07
2018-09-17T23:48:13.173Z,4.47
2018-09-17T23:51:18.882Z,4.80
2018-09-17T23:54:24.282Z,4.60
2018-09-17T23:57:29.774Z,4.23
